McIntyre, Pennsylvania
Current Conditions -  °F | °C
As of 11:35 AM on Wednesday 22 Oct 2014 (Local Time) from KIDI Reporting Station
Overcast Overcast  
Wind Chill: 42°   Ceiling: 1000
Heat Index: 46°   Visibility: 10mi
Dew Point: 45°   Wind: 8mph
Humidity: 93%   Direction: 20°NNE
Pressure: 30.16"   Gusts: NA
Location:  40.57°N, 79.3°W
Report Text: KIDI 221535Z AUTO 02007KT 340V050 10SM OVC010 08/07 A3016 RMK A01
Loading
Personal Weather Stations






























Interactive Weather Map
Tropical Storm Tracking
New forecast layout! Learn more

10-Day Weather Forecast

Advertisements
Track Severe Weather on mobile